createdAt,value
2018-12-10T00:00:09.888Z,0
2018-12-10T00:00:50.287Z,0
2018-12-10T00:01:30.726Z,0
2018-12-10T00:02:11.107Z,0
2018-12-10T00:02:51.516Z,0
2018-12-10T00:03:31.923Z,0
2018-12-10T00:04:12.377Z,0
2018-12-10T00:04:52.734Z,0
2018-12-10T00:05:33.099Z,0
2018-12-10T00:06:13.516Z,0
2018-12-10T00:06:53.911Z,0
2018-12-10T00:07:34.288Z,0
2018-12-10T00:08:14.656Z,0
2018-12-10T00:08:55.061Z,0
2018-12-10T00:09:36.140Z,0
2018-12-10T00:10:16.549Z,0
2018-12-10T00:10:56.991Z,0
2018-12-10T00:11:37.397Z,0
2018-12-10T00:12:17.868Z,0
2018-12-10T00:12:58.316Z,0
2018-12-10T00:13:38.707Z,0
2018-12-10T00:14:19.074Z,0
2018-12-10T00:14:59.544Z,0
2018-12-10T00:15:39.936Z,0
2018-12-10T00:16:20.295Z,0
2018-12-10T00:17:00.651Z,0
2018-12-10T00:17:41.053Z,0
2018-12-10T00:18:21.444Z,0
2018-12-10T00:19:01.865Z,0
2018-12-10T00:19:42.291Z,0
2018-12-10T00:20:22.721Z,0
2018-12-10T00:21:03.109Z,0
2018-12-10T00:21:43.514Z,0
2018-12-10T00:22:23.930Z,0
2018-12-10T00:23:04.336Z,0
2018-12-10T00:23:44.724Z,0
2018-12-10T00:24:25.105Z,0
2018-12-10T00:25:05.485Z,0
2018-12-10T00:25:45.916Z,0
2018-12-10T00:26:26.345Z,0
2018-12-10T00:27:06.779Z,0
2018-12-10T00:27:47.082Z,0
2018-12-10T00:28:27.494Z,0
2018-12-10T00:29:07.858Z,0
2018-12-10T00:29:48.256Z,0
2018-12-10T00:30:28.667Z,0
2018-12-10T00:31:09.070Z,0
2018-12-10T00:31:49.470Z,0
2018-12-10T00:32:29.912Z,0
2018-12-10T00:34:27.364Z,0
2018-12-10T00:35:08.016Z,0
2018-12-10T00:35:48.404Z,0
2018-12-10T00:36:28.789Z,0
2018-12-10T00:37:09.202Z,0
2018-12-10T00:37:49.612Z,0
2018-12-10T00:38:30.011Z,0
2018-12-10T00:39:10.434Z,0
2018-12-10T00:39:50.929Z,0
2018-12-10T00:40:31.313Z,0
2018-12-10T00:41:11.682Z,0
2018-12-10T00:41:52.074Z,0
2018-12-10T00:42:32.467Z,0
2018-12-10T00:43:12.829Z,0
2018-12-10T00:43:53.246Z,0
2018-12-10T00:44:33.626Z,0
2018-12-10T00:45:14.019Z,0
2018-12-10T00:45:54.446Z,0
2018-12-10T00:46:34.854Z,0
2018-12-10T00:47:15.287Z,0
2018-12-10T00:47:55.719Z,0
2018-12-10T00:48:36.150Z,0
2018-12-10T00:49:16.558Z,0
2018-12-10T00:49:56.991Z,0
2018-12-10T00:50:37.434Z,0
2018-12-10T00:51:17.834Z,0
2018-12-10T00:51:58.270Z,0
2018-12-10T00:52:38.765Z,0
2018-12-10T00:53:19.124Z,0
2018-12-10T00:53:59.568Z,0
2018-12-10T00:54:39.928Z,0
2018-12-10T00:55:20.362Z,0
2018-12-10T00:56:00.744Z,0
2018-12-10T00:56:41.131Z,0
2018-12-10T00:57:21.542Z,0
2018-12-10T00:58:01.929Z,0
2018-12-10T00:58:42.360Z,0
2018-12-10T00:59:22.802Z,0
2018-12-10T01:00:03.363Z,0
2018-12-10T01:00:43.580Z,0
2018-12-10T01:01:23.986Z,0
2018-12-10T01:02:04.378Z,0
2018-12-10T01:02:44.840Z,0
2018-12-10T01:03:25.244Z,0
2018-12-10T01:04:05.645Z,0
2018-12-10T01:04:46.057Z,0
2018-12-10T01:05:26.467Z,0
2018-12-10T01:06:06.890Z,0
2018-12-10T01:06:47.329Z,0
2018-12-10T01:07:27.731Z,0
2018-12-10T01:08:08.165Z,0
2018-12-10T01:08:48.523Z,0
2018-12-10T01:09:28.892Z,0
2018-12-10T01:10:09.302Z,0
2018-12-10T01:10:49.665Z,0
2018-12-10T01:13:22.603Z,0
2018-12-10T01:14:02.876Z,0
2018-12-10T01:14:43.295Z,0
2018-12-10T01:15:23.707Z,0
2018-12-10T01:18:15.551Z,0
2018-12-10T01:19:10.955Z,0
2018-12-10T01:20:07.755Z,0
2018-12-10T01:23:40.960Z,0
2018-12-10T01:28:01.892Z,0
2018-12-10T01:28:42.659Z,0
2018-12-10T01:29:23.076Z,0
2018-12-10T01:30:03.459Z,0
2018-12-10T01:30:43.838Z,0
2018-12-10T01:31:24.219Z,0
2018-12-10T01:32:04.595Z,0
2018-12-10T01:32:44.980Z,0
2018-12-10T01:33:25.406Z,0
2018-12-10T01:34:05.811Z,0
2018-12-10T01:36:19.460Z,0
2018-12-10T01:36:59.861Z,0
2018-12-10T01:37:40.288Z,0
2018-12-10T01:38:20.701Z,0
2018-12-10T01:39:01.161Z,0
2018-12-10T01:39:41.491Z,0
2018-12-10T01:40:21.918Z,0
2018-12-10T01:41:02.302Z,0
2018-12-10T01:41:43.361Z,0
2018-12-10T01:42:23.171Z,0
2018-12-10T01:43:03.656Z,0
2018-12-10T01:43:43.983Z,0
2018-12-10T01:44:24.405Z,0
2018-12-10T01:45:04.849Z,0
2018-12-10T01:45:45.181Z,0
2018-12-10T01:46:25.560Z,0
2018-12-10T01:47:05.938Z,0
2018-12-10T01:49:34.961Z,0
2018-12-10T01:50:15.255Z,0
2018-12-10T01:50:55.650Z,0
2018-12-10T01:51:36.056Z,0
2018-12-10T01:52:16.447Z,0
2018-12-10T01:54:14.082Z,0
2018-12-10T01:54:54.414Z,0
2018-12-10T01:55:34.853Z,0
2018-12-10T01:56:15.232Z,0
2018-12-10T01:58:27.758Z,0
2018-12-10T01:59:08.395Z,0
2018-12-10T01:59:48.721Z,0
2018-12-10T02:00:29.164Z,0
2018-12-10T02:01:09.575Z,0
2018-12-10T02:01:49.911Z,0
2018-12-10T02:02:30.344Z,0
2018-12-10T02:03:10.736Z,0
2018-12-10T02:03:51.148Z,0
2018-12-10T02:04:31.518Z,0
2018-12-10T02:05:12.074Z,0
2018-12-10T02:05:52.521Z,0
2018-12-10T02:06:32.909Z,0
2018-12-10T02:07:13.299Z,0
2018-12-10T02:07:53.713Z,0
2018-12-10T02:08:34.106Z,0
2018-12-10T02:09:14.513Z,0
2018-12-10T02:09:54.901Z,0
2018-12-10T02:10:35.289Z,0
2018-12-10T02:11:15.695Z,0
2018-12-10T02:11:56.055Z,0
2018-12-10T02:12:36.461Z,0
2018-12-10T02:13:16.862Z,0
2018-12-10T02:13:57.273Z,0
2018-12-10T02:14:37.680Z,0
2018-12-10T02:15:18.103Z,0
2018-12-10T02:15:58.500Z,0
2018-12-10T02:16:38.929Z,0
2018-12-10T02:17:19.288Z,0
2018-12-10T02:17:59.720Z,0
2018-12-10T02:18:40.086Z,0
2018-12-10T02:19:20.499Z,0
2018-12-10T02:21:33.338Z,0
2018-12-10T02:22:13.706Z,0
2018-12-10T02:22:54.128Z,0
2018-12-10T02:23:34.505Z,0
2018-12-10T02:24:14.889Z,0
2018-12-10T02:24:55.304Z,0
2018-12-10T02:25:35.824Z,0
2018-12-10T02:26:16.133Z,0
2018-12-10T02:26:56.555Z,0
2018-12-10T02:27:36.919Z,0
2018-12-10T02:28:17.347Z,0
2018-12-10T02:28:57.744Z,0
2018-12-10T02:29:38.162Z,0
2018-12-10T02:30:18.575Z,0
2018-12-10T02:30:59.012Z,0
2018-12-10T02:31:39.397Z,0
2018-12-10T02:32:20.033Z,0
2018-12-10T02:33:00.202Z,0
2018-12-10T02:33:40.609Z,0
2018-12-10T02:34:20.982Z,0
2018-12-10T02:35:01.382Z,0
2018-12-10T02:37:32.446Z,0
2018-12-10T02:38:26.755Z,0
2018-12-10T02:39:24.905Z,0
2018-12-10T02:40:21.628Z,0
2018-12-10T02:41:17.596Z,0
2018-12-10T02:42:10.240Z,0
2018-12-10T02:43:02.549Z,0
2018-12-10T02:45:06.633Z,0
2018-12-10T02:45:47.059Z,0
2018-12-10T02:46:27.429Z,0
2018-12-10T02:47:07.832Z,0
2018-12-10T02:47:48.229Z,0
2018-12-10T02:48:28.619Z,0
2018-12-10T02:49:09.193Z,0
2018-12-10T02:49:49.610Z,0
2018-12-10T02:50:30.022Z,0
2018-12-10T02:51:10.428Z,0
2018-12-10T02:53:25.197Z,0
2018-12-10T02:54:05.600Z,0
2018-12-10T02:54:45.949Z,0
2018-12-10T02:55:26.330Z,0
2018-12-10T02:56:06.711Z,0
2018-12-10T02:56:47.093Z,0
2018-12-10T02:57:27.526Z,0
2018-12-10T02:58:07.945Z,0
2018-12-10T02:58:48.351Z,0
2018-12-10T02:59:28.747Z,0
2018-12-10T03:00:09.184Z,0
2018-12-10T03:00:49.614Z,0
2018-12-10T03:01:29.984Z,0
2018-12-10T03:02:10.411Z,0
2018-12-10T03:02:50.830Z,0
2018-12-10T03:03:31.203Z,0
2018-12-10T03:04:11.585Z,0
2018-12-10T03:04:51.974Z,0
2018-12-10T03:05:32.381Z,0
2018-12-10T03:06:12.814Z,0
2018-12-10T03:06:53.214Z,0
2018-12-10T03:07:33.678Z,0
2018-12-10T03:08:14.064Z,0
2018-12-10T03:08:54.472Z,0
2018-12-10T03:09:35.150Z,0
2018-12-10T03:10:15.518Z,0
2018-12-10T03:10:55.898Z,0
2018-12-10T03:11:36.328Z,0
2018-12-10T03:12:16.769Z,0
2018-12-10T03:12:57.236Z,0
2018-12-10T03:13:37.626Z,0
2018-12-10T03:17:44.040Z,0
2018-12-10T03:18:24.296Z,0
2018-12-10T03:19:04.938Z,0
2018-12-10T03:19:45.124Z,0
2018-12-10T03:20:25.750Z,0
2018-12-10T03:21:06.059Z,0
2018-12-10T03:21:46.486Z,0
2018-12-10T03:22:26.902Z,0
2018-12-10T03:24:54.677Z,0
2018-12-10T03:27:40.104Z,0
2018-12-10T03:28:20.518Z,0
2018-12-10T03:29:00.910Z,0
2018-12-10T03:29:41.335Z,0
2018-12-10T03:30:21.784Z,0
2018-12-10T03:31:02.151Z,0
2018-12-10T03:33:30.368Z,0
2018-12-10T03:34:10.585Z,0
2018-12-10T03:34:50.948Z,0
2018-12-10T03:35:31.459Z,0
2018-12-10T03:36:11.781Z,0
2018-12-10T03:36:52.180Z,0
2018-12-10T03:37:32.581Z,0
2018-12-10T03:38:12.948Z,0
2018-12-10T03:38:53.338Z,0
2018-12-10T03:39:33.765Z,0
2018-12-10T03:40:14.271Z,0
2018-12-10T03:40:54.779Z,0
2018-12-10T03:41:35.189Z,0
2018-12-10T03:42:15.564Z,0
2018-12-10T03:42:55.956Z,0
2018-12-10T03:45:36.743Z,0
2018-12-10T03:46:31.258Z,0
2018-12-10T03:47:33.386Z,0
2018-12-10T03:48:26.385Z,0
2018-12-10T03:49:20.337Z,0
2018-12-10T03:50:16.480Z,0
2018-12-10T03:51:13.619Z,0
2018-12-10T03:52:06.037Z,0
2018-12-10T03:54:42.319Z,0
2018-12-10T03:55:22.724Z,0
2018-12-10T03:56:03.123Z,0
2018-12-10T03:58:38.226Z,0
2018-12-10T03:59:18.780Z,0
2018-12-10T03:59:59.227Z,0
2018-12-10T04:00:39.603Z,0
2018-12-10T04:01:19.982Z,0
2018-12-10T04:03:30.467Z,0
2018-12-10T04:04:22.605Z,0
2018-12-10T04:07:12.873Z,0
2018-12-10T04:07:53.310Z,0
2018-12-10T04:08:33.799Z,0
2018-12-10T04:09:14.194Z,0
2018-12-10T04:12:14.453Z,0
2018-12-10T04:12:54.811Z,0
2018-12-10T04:13:35.208Z,0
2018-12-10T04:14:15.621Z,0
2018-12-10T04:14:56.004Z,0
2018-12-10T04:15:36.399Z,0
2018-12-10T04:16:16.820Z,0
2018-12-10T04:16:57.206Z,0
2018-12-10T04:17:37.603Z,0
2018-12-10T04:18:17.999Z,0
2018-12-10T04:18:58.405Z,0
2018-12-10T04:19:38.795Z,0
2018-12-10T04:21:56.365Z,0
2018-12-10T04:22:36.763Z,0
2018-12-10T04:23:17.154Z,0
2018-12-10T04:23:57.572Z,0
2018-12-10T04:24:37.951Z,0
2018-12-10T04:25:18.347Z,0
2018-12-10T05:06:25.388Z,0
2018-12-10T05:07:05.746Z,0
2018-12-10T05:07:46.152Z,0
2018-12-10T05:08:26.585Z,0
2018-12-10T05:09:06.976Z,0
2018-12-10T05:09:47.397Z,0
2018-12-10T05:10:27.836Z,0
2018-12-10T05:11:08.217Z,0
2018-12-10T05:11:48.663Z,0
2018-12-10T05:12:29.232Z,0
2018-12-10T05:13:09.607Z,0
2018-12-10T05:13:50.245Z,0
2018-12-10T05:14:30.644Z,0
2018-12-10T05:15:11.083Z,0
2018-12-10T05:15:51.434Z,0
2018-12-10T05:16:31.832Z,0
2018-12-10T05:17:12.337Z,0
2018-12-10T05:17:52.695Z,0
2018-12-10T05:18:33.082Z,0
2018-12-10T05:19:13.544Z,0
2018-12-10T05:22:04.748Z,0
2018-12-10T05:24:57.178Z,0
2018-12-10T05:27:26.241Z,0
2018-12-10T05:28:07.029Z,0
2018-12-10T05:28:47.410Z,0
2018-12-10T05:30:44.917Z,0
2018-12-10T05:31:25.356Z,0
2018-12-10T05:32:05.774Z,0
2018-12-10T05:32:46.183Z,0
2018-12-10T05:33:26.546Z,0
2018-12-10T05:34:06.980Z,0
2018-12-10T05:34:47.377Z,0
2018-12-10T05:35:27.853Z,0
2018-12-10T05:36:08.190Z,0
2018-12-10T05:40:05.267Z,0
2018-12-10T05:41:02.441Z,0
2018-12-10T05:42:10.927Z,0
2018-12-10T05:43:06.243Z,0
2018-12-10T05:44:02.871Z,0
2018-12-10T05:44:59.299Z,0
2018-12-10T05:45:55.555Z,0
2018-12-10T05:46:50.353Z,0
2018-12-10T05:47:47.380Z,0
2018-12-10T05:48:47.632Z,0
2018-12-10T05:49:45.133Z,0
2018-12-10T05:52:22.052Z,0
2018-12-10T05:53:02.479Z,0
2018-12-10T05:53:42.981Z,0
2018-12-10T05:54:23.355Z,0
2018-12-10T05:55:03.732Z,0
2018-12-10T05:55:44.166Z,0
2018-12-10T05:56:24.601Z,0
2018-12-10T05:57:05.006Z,0
2018-12-10T05:57:45.504Z,0
2018-12-10T05:58:25.912Z,0
2018-12-10T05:59:06.327Z,0
2018-12-10T05:59:46.723Z,0
2018-12-10T06:00:27.132Z,0
2018-12-10T06:01:07.542Z,0
2018-12-10T06:01:47.946Z,0
2018-12-10T06:02:28.358Z,0
2018-12-10T06:03:08.795Z,0
2018-12-10T06:03:49.225Z,0
2018-12-10T06:04:29.798Z,0
2018-12-10T06:05:10.206Z,0
2018-12-10T06:05:50.711Z,0
2018-12-10T06:08:10.245Z,0
2018-12-10T06:08:50.727Z,0
2018-12-10T06:09:31.152Z,0
2018-12-10T06:10:11.542Z,0
2018-12-10T06:10:52.000Z,0
2018-12-10T06:11:32.394Z,0
2018-12-10T06:12:12.786Z,0
2018-12-10T06:12:53.275Z,0
2018-12-10T06:13:33.667Z,0
2018-12-10T06:14:14.082Z,0
2018-12-10T06:14:54.527Z,0
2018-12-10T06:15:34.918Z,0
2018-12-10T06:17:52.710Z,0
2018-12-10T06:18:33.237Z,0
2018-12-10T06:19:13.673Z,0
2018-12-10T06:19:54.031Z,0
2018-12-10T06:20:34.465Z,0
2018-12-10T06:21:14.917Z,0
2018-12-10T06:21:55.429Z,0
2018-12-10T06:22:35.749Z,0
2018-12-10T06:23:16.340Z,0
2018-12-10T06:23:56.750Z,0
2018-12-10T06:24:37.106Z,0
2018-12-10T06:25:17.562Z,0
2018-12-10T06:25:58.036Z,0
2018-12-10T06:26:38.372Z,0
2018-12-10T06:27:18.852Z,0
2018-12-10T06:27:59.232Z,0
2018-12-10T06:28:39.621Z,0
2018-12-10T06:29:20.046Z,0
2018-12-10T06:30:00.436Z,0
2018-12-10T06:30:40.837Z,0
2018-12-10T06:31:21.246Z,0
2018-12-10T06:32:01.751Z,0
2018-12-10T06:34:54.276Z,0
2018-12-10T06:36:51.200Z,0
2018-12-10T06:37:37.484Z,0
2018-12-10T06:38:11.861Z,0
2018-12-10T06:38:52.269Z,0
2018-12-10T06:39:33.073Z,0
2018-12-10T06:40:15.727Z,0
2018-12-10T06:40:56.140Z,0
2018-12-10T06:41:37.041Z,0
2018-12-10T06:42:17.561Z,0
2018-12-10T06:42:57.962Z,0
2018-12-10T06:43:38.326Z,0
2018-12-10T06:44:18.860Z,0
2018-12-10T06:44:59.267Z,0
2018-12-10T06:45:39.635Z,0
2018-12-10T06:46:20.095Z,0
2018-12-10T06:47:00.539Z,0
2018-12-10T06:47:40.983Z,0
2018-12-10T06:48:21.594Z,0
2018-12-10T06:49:01.977Z,0
2018-12-10T06:49:42.547Z,0
2018-12-10T06:50:23.019Z,0
2018-12-10T06:51:04.046Z,0
2018-12-10T06:51:45.884Z,0
2018-12-10T06:52:26.523Z,0
2018-12-10T06:53:07.683Z,0
2018-12-10T06:53:47.704Z,0
2018-12-10T06:54:28.116Z,4
2018-12-10T06:55:08.829Z,4
2018-12-10T06:55:50.950Z,0
2018-12-10T06:57:48.750Z,4
2018-12-10T06:58:28.984Z,4
2018-12-10T06:59:09.595Z,0
2018-12-10T06:59:51.017Z,4
2018-12-10T07:00:30.902Z,4
2018-12-10T07:01:11.400Z,4
2018-12-10T07:01:52.982Z,4
2018-12-10T07:02:35.140Z,4
2018-12-10T07:03:14.509Z,4
2018-12-10T07:03:55.150Z,8
2018-12-10T07:04:36.589Z,4
2018-12-10T07:05:17.043Z,8
2018-12-10T07:05:58.689Z,8
2018-12-10T07:06:40.555Z,8
2018-12-10T07:07:20.612Z,8
2018-12-10T07:08:01.375Z,12
2018-12-10T07:08:42.436Z,12
2018-12-10T07:09:23.379Z,12
2018-12-10T07:10:04.535Z,16
2018-12-10T07:10:44.447Z,16
2018-12-10T07:11:26.029Z,20
2018-12-10T07:12:05.887Z,20
2018-12-10T07:12:46.504Z,24
2018-12-10T07:13:27.220Z,24
2018-12-10T07:14:08.755Z,28
2018-12-10T07:14:49.288Z,28
2018-12-10T07:15:30.537Z,28
2018-12-10T07:16:11.731Z,28
2018-12-10T07:16:54.455Z,32
2018-12-10T07:17:32.983Z,32
2018-12-10T07:18:14.097Z,36
2018-12-10T07:18:54.865Z,40
2018-12-10T07:19:35.640Z,40
2018-12-10T07:20:16.286Z,40
2018-12-10T07:20:57.632Z,40
2018-12-10T07:21:37.754Z,40
2018-12-10T07:22:18.555Z,40
2018-12-10T07:22:59.049Z,40
2018-12-10T07:23:39.481Z,44
2018-12-10T07:24:20.316Z,40
2018-12-10T07:25:01.245Z,40
2018-12-10T07:25:41.978Z,44
2018-12-10T07:26:21.951Z,48
2018-12-10T07:28:20.106Z,56
2018-12-10T07:29:00.911Z,56
2018-12-10T07:29:42.085Z,64
2018-12-10T07:30:23.484Z,64
2018-12-10T07:31:04.704Z,72
2018-12-10T07:31:44.145Z,76
2018-12-10T07:32:24.977Z,80
2018-12-10T07:33:05.431Z,84
2018-12-10T07:33:46.130Z,88
2018-12-10T07:34:27.456Z,92
2018-12-10T07:35:08.073Z,92
2018-12-10T07:35:48.714Z,92
2018-12-10T07:36:29.192Z,100
2018-12-10T07:37:09.576Z,100
2018-12-10T07:37:50.962Z,104
2018-12-10T07:38:31.668Z,104
2018-12-10T07:39:12.102Z,108
2018-12-10T07:39:52.554Z,104
2018-12-10T07:40:33.491Z,104
2018-12-10T07:41:13.569Z,96
2018-12-10T07:41:55.032Z,96
2018-12-10T07:42:34.989Z,92
2018-12-10T07:43:16.033Z,96
2018-12-10T07:43:56.712Z,92
2018-12-10T07:44:37.012Z,88
2018-12-10T07:45:17.564Z,84
2018-12-10T07:45:58.087Z,80
2018-12-10T07:46:39.570Z,84
2018-12-10T07:47:20.249Z,84
2018-12-10T07:48:01.741Z,88
2018-12-10T07:50:13.994Z,88
2018-12-10T07:50:55.481Z,84
2018-12-10T07:51:35.008Z,88
2018-12-10T07:52:15.569Z,96
2018-12-10T07:52:56.255Z,96
2018-12-10T07:53:36.995Z,100
2018-12-10T07:54:18.167Z,100
2018-12-10T07:54:59.504Z,100
2018-12-10T07:55:39.997Z,104
2018-12-10T07:56:28.925Z,108
2018-12-10T07:57:03.494Z,116
2018-12-10T07:57:43.724Z,128
2018-12-10T07:58:24.575Z,136
2018-12-10T07:59:05.988Z,156
2018-12-10T07:59:46.080Z,164
2018-12-10T08:00:27.243Z,168
2018-12-10T08:02:55.733Z,152
2018-12-10T08:03:36.703Z,148
2018-12-10T08:04:17.837Z,152
2018-12-10T08:04:58.102Z,172
2018-12-10T08:05:38.604Z,188
2018-12-10T08:06:20.846Z,184
2018-12-10T08:07:03.806Z,188
2018-12-10T08:07:45.292Z,196
2018-12-10T08:08:26.294Z,196
2018-12-10T08:09:07.228Z,192
2018-12-10T08:09:51.223Z,188
2018-12-10T08:10:38.309Z,188
2018-12-10T08:11:18.559Z,200
2018-12-10T08:11:59.214Z,232
2018-12-10T08:12:40.059Z,268
2018-12-10T08:13:22.190Z,296
2018-12-10T08:14:03.594Z,292
2018-12-10T08:14:42.738Z,288
2018-12-10T08:15:23.327Z,292
2018-12-10T08:16:03.954Z,296
2018-12-10T08:16:44.825Z,292
2018-12-10T08:17:25.270Z,288
2018-12-10T08:18:05.765Z,280
2018-12-10T08:18:46.715Z,268
2018-12-10T08:19:26.945Z,264
2018-12-10T08:20:08.200Z,260
2018-12-10T08:20:48.651Z,252
2018-12-10T08:21:29.299Z,244
2018-12-10T08:22:11.206Z,236
2018-12-10T08:22:51.611Z,228
2018-12-10T08:23:32.751Z,232
2018-12-10T08:24:13.223Z,236
2018-12-10T08:24:54.123Z,248
2018-12-10T08:25:35.089Z,260
2018-12-10T08:26:16.229Z,272
2018-12-10T08:26:57.085Z,308
2018-12-10T08:27:37.540Z,344
2018-12-10T08:28:18.511Z,404
2018-12-10T08:29:07.126Z,540
2018-12-10T08:29:40.203Z,636
2018-12-10T08:30:21.857Z,624
2018-12-10T08:31:03.471Z,528
2018-12-10T08:31:42.471Z,436
2018-12-10T08:32:23.238Z,344
2018-12-10T08:33:04.698Z,272
2018-12-10T08:33:45.085Z,228
2018-12-10T08:34:25.976Z,192
2018-12-10T08:35:06.566Z,176
2018-12-10T08:35:47.385Z,156
2018-12-10T08:36:28.910Z,152
2018-12-10T08:37:09.189Z,156
2018-12-10T08:37:50.746Z,192
2018-12-10T08:38:30.743Z,224
2018-12-10T08:39:11.622Z,256
2018-12-10T08:39:53.194Z,276
2018-12-10T08:40:33.711Z,288
2018-12-10T08:41:13.907Z,288
2018-12-10T08:41:55.874Z,300
2018-12-10T08:42:37.396Z,332
2018-12-10T08:43:18.202Z,372
2018-12-10T08:43:59.743Z,380
2018-12-10T08:44:39.942Z,312
2018-12-10T08:45:20.620Z,256
2018-12-10T08:46:01.751Z,204
2018-12-10T08:46:43.259Z,168
2018-12-10T08:47:23.978Z,164
2018-12-10T08:48:04.540Z,168
2018-12-10T08:48:45.138Z,164
2018-12-10T08:49:25.720Z,164
2018-12-10T08:50:06.659Z,172
2018-12-10T08:50:47.171Z,200
2018-12-10T08:51:28.319Z,224
2018-12-10T08:52:09.697Z,316
2018-12-10T08:52:49.578Z,340
2018-12-10T08:53:30.524Z,368
2018-12-10T08:54:11.999Z,436
2018-12-10T08:54:51.866Z,524
2018-12-10T08:55:33.705Z,564
2018-12-10T08:56:13.778Z,596
2018-12-10T08:56:55.207Z,640
2018-12-10T08:57:35.198Z,632
2018-12-10T08:58:17.381Z,604
2018-12-10T08:58:59.646Z,552
2018-12-10T08:59:41.206Z,512
2018-12-10T09:00:21.209Z,496
2018-12-10T09:01:02.846Z,476
2018-12-10T09:01:42.979Z,500
2018-12-10T09:02:23.746Z,524
2018-12-10T09:03:05.364Z,568
2018-12-10T09:03:45.563Z,572
2018-12-10T09:04:26.704Z,548
2018-12-10T09:05:06.963Z,600
2018-12-10T09:05:47.388Z,664
2018-12-10T09:06:27.917Z,624
2018-12-10T09:07:09.566Z,556
2018-12-10T09:07:50.265Z,544
2018-12-10T09:08:31.711Z,536
2018-12-10T09:09:11.833Z,532
2018-12-10T09:09:52.986Z,520
2018-12-10T09:10:34.671Z,536
2018-12-10T09:11:13.880Z,720
2018-12-10T09:15:56.793Z,568
2018-12-10T09:16:37.164Z,540
2018-12-10T09:17:18.829Z,600
2018-12-10T09:17:59.994Z,636
2018-12-10T09:18:40.150Z,796
2018-12-10T09:19:20.746Z,880
2018-12-10T09:20:02.269Z,928
2018-12-10T09:20:42.250Z,924
2018-12-10T09:21:23.778Z,904
2018-12-10T09:22:05.271Z,764
2018-12-10T09:22:45.094Z,656
2018-12-10T09:23:26.060Z,624
2018-12-10T09:24:06.814Z,576
2018-12-10T09:24:47.538Z,552
2018-12-10T09:25:28.010Z,544
2018-12-10T09:26:09.292Z,552
2018-12-10T09:26:49.611Z,568
2018-12-10T09:27:30.774Z,592
2018-12-10T09:28:19.251Z,616
2018-12-10T09:28:51.703Z,644
2018-12-10T09:29:32.897Z,740
2018-12-10T09:30:12.888Z,796
2018-12-10T09:30:54.489Z,808
2018-12-10T09:31:34.802Z,784
2018-12-10T09:32:15.038Z,832
2018-12-10T09:36:37.457Z,868
2018-12-10T09:38:33.604Z,552
2018-12-10T09:39:14.236Z,540
2018-12-10T09:39:55.031Z,552
2018-12-10T09:40:35.485Z,584
2018-12-10T09:41:16.203Z,608
2018-12-10T09:41:58.395Z,644
2018-12-10T09:42:38.148Z,704
2018-12-10T09:43:18.748Z,720
2018-12-10T09:43:59.391Z,684
2018-12-10T09:44:40.020Z,624
2018-12-10T09:45:20.761Z,608
2018-12-10T09:46:02.565Z,584
2018-12-10T09:46:42.669Z,560
2018-12-10T09:47:23.232Z,532
2018-12-10T09:48:05.552Z,500
2018-12-10T09:48:45.413Z,484
2018-12-10T09:49:26.024Z,480
2018-12-10T09:50:07.418Z,456
2018-12-10T09:50:47.847Z,448
2018-12-10T09:51:28.648Z,464
2018-12-10T09:52:09.368Z,508
2018-12-10T09:52:49.851Z,552
2018-12-10T09:53:30.674Z,556
2018-12-10T09:54:12.082Z,544
2018-12-10T09:54:52.610Z,552
2018-12-10T09:55:33.409Z,588
2018-12-10T09:56:14.028Z,592
2018-12-10T09:56:54.865Z,620
2018-12-10T09:57:35.548Z,600
2018-12-10T09:58:16.851Z,552
2018-12-10T09:58:57.338Z,532
2018-12-10T09:59:39.159Z,504
2018-12-10T10:00:19.020Z,460
2018-12-10T10:00:59.924Z,436
2018-12-10T10:01:40.327Z,416
2018-12-10T10:02:21.198Z,412
2018-12-10T10:03:02.111Z,408
2018-12-10T10:03:43.136Z,408
2018-12-10T10:04:25.535Z,412
2018-12-10T10:05:05.882Z,432
2018-12-10T10:05:45.672Z,468
2018-12-10T10:06:26.286Z,504
2018-12-10T10:07:07.900Z,536
2018-12-10T10:07:48.085Z,564
2018-12-10T10:08:28.618Z,588
2018-12-10T10:09:09.624Z,612
2018-12-10T10:09:50.198Z,592
2018-12-10T10:10:30.738Z,540
2018-12-10T10:11:11.735Z,504
2018-12-10T10:11:52.114Z,476
2018-12-10T10:12:32.853Z,444
2018-12-10T10:13:13.605Z,428
2018-12-10T10:13:55.026Z,408
2018-12-10T10:14:35.891Z,400
2018-12-10T10:15:16.247Z,408
2018-12-10T10:15:57.074Z,428
2018-12-10T10:16:38.397Z,420
2018-12-10T10:17:18.739Z,424
2018-12-10T10:17:59.469Z,456
2018-12-10T10:18:40.407Z,492
2018-12-10T10:19:21.402Z,468
2018-12-10T10:20:02.522Z,408
2018-12-10T10:20:43.647Z,404
2018-12-10T10:21:24.109Z,336
2018-12-10T10:22:03.684Z,340
2018-12-10T10:22:44.491Z,368
2018-12-10T10:23:24.938Z,408
2018-12-10T10:24:05.519Z,476
2018-12-10T10:24:47.018Z,544
2018-12-10T10:25:26.998Z,640
2018-12-10T10:26:08.164Z,780
2018-12-10T10:26:48.763Z,828
2018-12-10T10:27:30.006Z,832
2018-12-10T10:28:10.175Z,848
2018-12-10T10:28:51.018Z,836
2018-12-10T11:09:38.718Z,200
2018-12-10T11:10:20.787Z,200
2018-12-10T11:11:01.571Z,212
2018-12-10T11:11:42.066Z,252
2018-12-10T11:12:23.805Z,304
2018-12-10T11:13:03.711Z,364
2018-12-10T11:13:44.285Z,380
2018-12-10T11:14:24.649Z,404
2018-12-10T11:15:05.138Z,464
2018-12-10T11:15:45.578Z,496
2018-12-10T11:16:26.048Z,508
2018-12-10T11:17:06.518Z,500
2018-12-10T11:17:46.895Z,500
2018-12-10T11:18:27.328Z,500
2018-12-10T11:19:08.675Z,488
2018-12-10T11:19:48.558Z,452
2018-12-10T11:20:39.422Z,444
2018-12-10T11:21:22.380Z,464
2018-12-10T11:22:04.544Z,568
2018-12-10T11:22:46.641Z,580
2018-12-10T11:23:26.774Z,552
2018-12-10T11:24:08.750Z,552
2018-12-10T11:24:49.044Z,588
2018-12-10T11:25:30.588Z,524
2018-12-10T11:26:10.724Z,484
2018-12-10T11:26:51.293Z,400
2018-12-10T11:27:32.305Z,344
2018-12-10T11:28:12.770Z,344
2018-12-10T11:28:53.365Z,332
2018-12-10T11:29:34.020Z,364
2018-12-10T11:30:15.571Z,456
2018-12-10T11:30:55.633Z,600
2018-12-10T11:31:36.086Z,732
2018-12-10T11:32:16.559Z,872
2018-12-10T11:33:01.703Z,904
2018-12-10T11:33:42.143Z,844
2018-12-10T11:34:22.992Z,792
2018-12-10T11:35:05.204Z,748
2018-12-10T11:35:47.077Z,764
2018-12-10T11:36:27.546Z,784
2018-12-10T11:37:07.998Z,824
2018-12-10T11:37:48.662Z,880
2018-12-10T11:38:29.876Z,860
2018-12-10T11:39:11.819Z,720
2018-12-10T11:39:52.896Z,496
2018-12-10T11:40:34.743Z,388
2018-12-10T11:41:15.958Z,348
2018-12-10T11:41:57.036Z,328
2018-12-10T11:42:38.823Z,328
2018-12-10T11:43:19.729Z,348
2018-12-10T11:44:00.342Z,336
2018-12-10T11:44:41.256Z,340
2018-12-10T11:45:22.121Z,356
2018-12-10T11:46:02.883Z,348
2018-12-10T11:46:43.365Z,340
2018-12-10T11:47:24.589Z,296
2018-12-10T11:48:04.907Z,256
2018-12-10T11:48:46.033Z,244
2018-12-10T11:49:27.594Z,248
2018-12-10T11:50:08.777Z,260
2018-12-10T11:50:48.742Z,264
2018-12-10T11:51:30.276Z,256
2018-12-10T11:52:10.146Z,256
2018-12-10T11:52:51.058Z,232
2018-12-10T11:53:32.746Z,220
2018-12-10T11:54:12.466Z,220
2018-12-10T11:54:52.938Z,228
2018-12-10T11:55:33.371Z,236
2018-12-10T11:56:13.962Z,240
2018-12-10T11:56:55.591Z,228
2018-12-10T11:57:35.543Z,212
2018-12-10T11:58:16.034Z,220
2018-12-10T11:58:57.651Z,212
2018-12-10T11:59:37.496Z,232
2018-12-10T12:00:17.958Z,260
2018-12-10T12:00:58.413Z,296
2018-12-10T12:01:39.630Z,296
2018-12-10T12:02:20.104Z,264
2018-12-10T12:03:01.006Z,236
2018-12-10T12:03:41.246Z,220
2018-12-10T12:04:22.592Z,204
2018-12-10T12:05:03.505Z,196
2018-12-10T12:05:44.836Z,168
2018-12-10T12:06:26.067Z,152
2018-12-10T12:07:05.798Z,124
2018-12-10T12:07:46.291Z,104
2018-12-10T12:08:27.619Z,92
2018-12-10T12:09:07.689Z,92
2018-12-10T12:09:49.066Z,92
2018-12-10T12:10:29.127Z,92
2018-12-10T12:11:10.483Z,96
2018-12-10T12:11:50.856Z,96
2018-12-10T12:12:32.129Z,88
2018-12-10T12:13:13.095Z,96
2018-12-10T12:13:53.303Z,104
2018-12-10T12:14:34.115Z,136
2018-12-10T12:15:14.837Z,156
2018-12-10T12:15:56.337Z,152
2018-12-10T12:16:38.457Z,152
2018-12-10T12:17:19.609Z,164
2018-12-10T12:18:01.764Z,180
2018-12-10T12:18:42.601Z,180
2018-12-10T12:19:23.411Z,176
2018-12-10T12:20:06.343Z,196
2018-12-10T12:20:46.413Z,212
2018-12-10T12:21:27.810Z,236
2018-12-10T12:22:08.776Z,228
2018-12-10T12:22:50.145Z,216
2018-12-10T12:23:30.066Z,208
2018-12-10T12:24:10.902Z,204
2018-12-10T12:24:51.516Z,228
2018-12-10T12:25:32.681Z,244
2018-12-10T12:26:13.453Z,260
2018-12-10T12:26:54.210Z,312
2018-12-10T12:27:34.543Z,332
2018-12-10T12:28:15.170Z,332
2018-12-10T12:28:55.548Z,284
2018-12-10T12:29:36.266Z,248
2018-12-10T12:30:16.779Z,224
2018-12-10T12:30:57.371Z,224
2018-12-10T12:31:38.094Z,224